Time;durP1;ratioP1;P1;durP2;ratioP2;P2;SDS_P1;SDS_P2;PMS_P1;PMS_P2;Temp;Humidity;BMP_temperature;BMP_pressure;BME280_temperature;BME280_humidity;BME280_pressure;Samples;Min_cycle;Max_cycle;Signal;HPM_P1;HPM_P2
2023/05/28 00:01:26;;;;;;;14.85;5.93;;;11.90;99.90;;;;;;5033870;28;20125;-64
2023/05/28 00:03:51;;;;;;;10.25;5.07;;;11.90;99.90;;;;;;5017788;28;20025;-65
2023/05/28 00:06:17;;;;;;;12.50;5.75;;;12.00;99.90;;;;;;5034863;28;20480;-64
2023/05/28 00:08:42;;;;;;;12.30;6.63;;;12.00;99.90;;;;;;5034107;28;20022;-66
2023/05/28 00:11:08;;;;;;;14.00;6.18;;;12.10;99.90;;;;;;5035480;28;20485;-65
2023/05/28 00:13:34;;;;;;;11.85;5.88;;;12.00;99.90;;;;;;5034764;28;20033;-65
2023/05/28 00:16:00;;;;;;;10.23;5.97;;;12.00;99.90;;;;;;5034593;28;20037;-65
2023/05/28 00:18:28;;;;;;;13.27;5.65;;;12.10;99.90;;;;;;5034280;28;20323;-65
2023/05/28 00:20:53;;;;;;;15.43;5.85;;;12.10;99.90;;;;;;5030760;28;20048;-66
2023/05/28 00:23:19;;;;;;;13.43;5.80;;;12.10;99.90;;;;;;5019890;28;20478;-66
2023/05/28 00:25:45;;;;;;;10.63;5.90;;;12.10;99.90;;;;;;5030345;28;20034;-65
2023/05/28 00:28:11;;;;;;;11.93;5.72;;;12.10;99.90;;;;;;5030957;28;20084;-65
2023/05/28 00:30:37;;;;;;;12.65;5.78;;;12.10;99.90;;;;;;5033228;28;20099;-65
2023/05/28 00:33:02;;;;;;;10.55;5.50;;;12.10;99.90;;;;;;5029304;28;20553;-66
2023/05/28 00:35:28;;;;;;;13.18;6.07;;;12.10;99.90;;;;;;5032760;28;20052;-65
2023/05/28 00:37:53;;;;;;;14.40;5.75;;;12.10;99.90;;;;;;5034549;28;20021;-67
2023/05/28 00:40:19;;;;;;;13.25;6.60;;;12.10;99.90;;;;;;5034001;28;20037;-66
2023/05/28 00:42:45;;;;;;;10.73;5.68;;;12.10;99.90;;;;;;5033195;28;20076;-67
2023/05/28 00:45:11;;;;;;;14.57;5.70;;;12.10;99.90;;;;;;5034380;28;20017;-65
2023/05/28 00:47:39;;;;;;;13.68;6.05;;;12.10;99.90;;;;;;5024923;28;20029;-67
2023/05/28 00:50:09;;;;;;;13.68;6.13;;;12.10;99.90;;;;;;5032290;28;20466;-66
2023/05/28 00:52:35;;;;;;;12.23;6.20;;;12.10;99.90;;;;;;5034062;28;20029;-66
2023/05/28 00:55:03;;;;;;;12.48;5.55;;;12.00;99.90;;;;;;5033051;28;20378;-66
2023/05/28 00:57:29;;;;;;;13.93;6.10;;;12.00;99.90;;;;;;5031716;28;20037;-65
2023/05/28 00:59:56;;;;;;;13.55;5.63;;;11.90;99.90;;;;;;5058791;28;20401;-69
2023/05/28 01:02:22;;;;;;;12.48;5.63;;;11.90;99.90;;;;;;5073094;28;20108;-66
2023/05/28 01:04:47;;;;;;;12.27;5.88;;;11.80;99.90;;;;;;5073016;28;20488;-66
2023/05/28 01:07:13;;;;;;;12.18;6.82;;;11.80;99.90;;;;;;5072794;28;20032;-66
2023/05/28 01:09:40;;;;;;;15.45;6.47;;;11.80;99.90;;;;;;5042714;28;20103;-69
2023/05/28 01:12:07;;;;;;;12.05;6.35;;;11.70;99.90;;;;;;5053590;28;20127;-65
2023/05/28 01:14:33;;;;;;;14.88;7.32;;;11.70;99.90;;;;;;5056358;28;20480;-65
2023/05/28 01:16:59;;;;;;;13.30;5.75;;;11.80;99.90;;;;;;5055346;28;20031;-66
2023/05/28 01:19:27;;;;;;;17.33;6.78;;;11.80;99.90;;;;;;5066571;28;20381;-66
2023/05/28 01:21:57;;;;;;;19.50;6.97;;;11.70;99.90;;;;;;5057155;28;20020;-66
2023/05/28 01:24:24;;;;;;;15.45;5.97;;;11.70;99.90;;;;;;5062521;28;20033;-65
2023/05/28 01:26:50;;;;;;;14.38;6.32;;;11.60;99.90;;;;;;5057398;28;20036;-65
2023/05/28 01:29:17;;;;;;;19.30;6.75;;;11.60;99.90;;;;;;5046355;28;20416;-65
2023/05/28 01:31:43;;;;;;;13.10;5.80;;;11.60;99.90;;;;;;5053192;28;20044;-71
2023/05/28 01:34:10;;;;;;;9.68;5.70;;;11.60;99.90;;;;;;5069964;28;20067;-65
2023/05/28 01:36:42;;;;;;;12.48;6.00;;;11.60;99.90;;;;;;5055718;28;20024;-68
2023/05/28 01:39:12;;;;;;;16.23;7.20;;;11.60;99.90;;;;;;5065768;28;20027;-68
2023/05/28 01:41:38;;;;;;;17.60;7.10;;;11.60;99.90;;;;;;5058548;28;20119;-64
2023/05/28 01:44:06;;;;;;;15.55;5.95;;;11.60;99.90;;;;;;5072409;28;20102;-65
2023/05/28 01:46:32;;;;;;;17.98;6.63;;;11.60;99.90;;;;;;5072658;28;20087;-65
2023/05/28 01:48:59;;;;;;;19.50;6.55;;;11.60;99.90;;;;;;5064958;28;20478;-65
2023/05/28 01:51:25;;;;;;;14.45;6.63;;;11.50;99.90;;;;;;5067388;28;20127;-65
2023/05/28 01:53:51;;;;;;;16.20;6.60;;;11.50;99.90;;;;;;5045643;28;20434;-66
2023/05/28 01:56:17;;;;;;;15.63;6.03;;;11.40;99.90;;;;;;5053209;28;20497;-66
2023/05/28 01:58:42;;;;;;;15.98;6.75;;;11.40;99.90;;;;;;5054178;28;20037;-65
2023/05/28 02:01:35;;;;;;;18.60;6.07;;;11.40;99.90;;;;;;5048070;28;20112;-65
2023/05/28 02:04:01;;;;;;;18.63;6.55;;;11.40;99.90;;;;;;5068204;28;20016;-65
2023/05/28 02:06:31;;;;;;;11.20;6.55;;;11.40;99.90;;;;;;5072267;28;20041;-72
2023/05/28 02:08:57;;;;;;;16.83;6.22;;;11.30;99.90;;;;;;5043716;28;20393;-74
2023/05/28 02:11:22;;;;;;;15.00;7.32;;;11.30;99.90;;;;;;5071471;28;20037;-74
2023/05/28 02:13:48;;;;;;;13.93;6.35;;;11.20;99.90;;;;;;5053905;28;20017;-66
2023/05/28 02:16:17;;;;;;;18.17;6.40;;;11.10;99.90;;;;;;5068610;28;20039;-68
2023/05/28 02:18:47;;;;;;;18.52;6.32;;;11.00;99.90;;;;;;5070850;28;20122;-67
2023/05/28 02:21:13;;;;;;;14.60;6.07;;;11.00;99.90;;;;;;5071930;28;20103;-69
2023/05/28 02:23:44;;;;;;;18.58;6.88;;;11.00;99.90;;;;;;5049146;28;20500;-70
2023/05/28 02:26:09;;;;;;;17.77;7.13;;;11.00;99.90;;;;;;5059274;28;20063;-73
2023/05/28 02:28:35;;;;;;;17.85;6.78;;;11.00;99.90;;;;;;5068928;28;20381;-66
2023/05/28 02:31:01;;;;;;;12.27;5.85;;;10.90;99.90;;;;;;5053566;28;20064;-65
2023/05/28 02:33:26;;;;;;;16.25;6.20;;;10.90;99.90;;;;;;5069358;28;20016;-74
2023/05/28 02:35:52;;;;;;;15.38;6.35;;;10.80;99.90;;;;;;5062417;28;20082;-69
2023/05/28 02:38:18;;;;;;;17.10;6.75;;;10.80;99.90;;;;;;5063683;28;20025;-74
2023/05/28 02:40:43;;;;;;;17.52;6.82;;;10.70;99.90;;;;;;5060715;28;20091;-69
2023/05/28 02:43:09;;;;;;;15.18;5.78;;;10.70;99.90;;;;;;5059204;28;20021;-66
2023/05/28 02:45:34;;;;;;;11.90;6.05;;;10.70;99.90;;;;;;5069920;28;20497;-71
2023/05/28 02:48:01;;;;;;;14.27;5.88;;;10.70;99.90;;;;;;5066401;28;20032;-65
2023/05/28 02:50:26;;;;;;;17.65;6.95;;;10.70;99.90;;;;;;5066849;28;20021;-66
2023/05/28 02:52:52;;;;;;;16.42;6.75;;;10.60;99.90;;;;;;5066334;28;20091;-66
2023/05/28 02:55:17;;;;;;;17.20;7.05;;;10.60;99.90;;;;;;5068260;28;20021;-65
2023/05/28 02:57:43;;;;;;;17.45;6.38;;;10.60;99.90;;;;;;5049421;28;20033;-65
2023/05/28 03:00:09;;;;;;;18.52;6.55;;;10.60;99.90;;;;;;5067414;28;20565;-65
2023/05/28 03:02:35;;;;;;;18.70;6.65;;;10.60;99.90;;;;;;5068615;28;20110;-70
2023/05/28 03:05:02;;;;;;;14.50;6.30;;;10.60;99.90;;;;;;5066254;28;20567;-68
2023/05/28 03:07:31;;;;;;;14.80;5.70;;;10.60;99.90;;;;;;5065803;28;20077;-73
2023/05/28 03:09:57;;;;;;;16.98;7.40;;;10.60;99.90;;;;;;5067155;28;20166;-66
2023/05/28 03:12:23;;;;;;;17.98;7.15;;;10.60;99.90;;;;;;5066385;28;20083;-66
2023/05/28 03:14:48;;;;;;;16.25;6.40;;;10.60;99.90;;;;;;5051227;28;20741;-66
2023/05/28 03:17:14;;;;;;;18.02;7.00;;;10.50;99.90;;;;;;5066845;28;20040;-66
2023/05/28 03:19:40;;;;;;;16.52;6.53;;;10.60;99.90;;;;;;5067731;28;20170;-65
2023/05/28 03:22:06;;;;;;;15.70;6.72;;;10.50;99.90;;;;;;5069336;28;20490;-67
2023/05/28 03:24:31;;;;;;;11.63;5.97;;;10.50;99.90;;;;;;5069027;28;20028;-65
2023/05/28 03:26:59;;;;;;;16.30;6.70;;;10.40;99.90;;;;;;5069327;28;20079;-64
2023/05/28 03:29:25;;;;;;;18.33;6.90;;;10.40;99.90;;;;;;5049007;28;20380;-65
2023/05/28 03:31:50;;;;;;;13.20;6.03;;;10.40;99.90;;;;;;5070624;28;20029;-65
2023/05/28 03:34:16;;;;;;;15.85;7.20;;;10.30;99.90;;;;;;5067275;28;20024;-67
2023/05/28 03:36:42;;;;;;;16.92;6.68;;;10.30;99.90;;;;;;5070954;28;20034;-65
2023/05/28 03:39:08;;;;;;;16.60;7.43;;;10.40;99.90;;;;;;5068734;28;20037;-65
2023/05/28 03:41:35;;;;;;;17.13;6.63;;;10.30;99.90;;;;;;5070414;28;20024;-67
2023/05/28 03:44:01;;;;;;;17.52;7.13;;;10.40;99.90;;;;;;5066869;28;20032;-65
2023/05/28 03:46:27;;;;;;;14.90;7.03;;;10.40;99.90;;;;;;5065846;28;20044;-66
2023/05/28 03:48:53;;;;;;;17.90;8.25;;;10.40;99.90;;;;;;5069034;28;20489;-66
2023/05/28 03:51:19;;;;;;;18.10;7.32;;;10.40;99.90;;;;;;5050410;28;20020;-66
2023/05/28 03:53:44;;;;;;;18.85;7.57;;;10.40;99.90;;;;;;5070592;28;20028;-71
2023/05/28 03:56:10;;;;;;;14.27;6.60;;;10.40;99.90;;;;;;5072523;28;20074;-65
2023/05/28 03:58:36;;;;;;;16.02;6.30;;;10.40;99.90;;;;;;5051982;28;20055;-65
2023/05/28 04:01:01;;;;;;;15.45;7.35;;;10.50;99.90;;;;;;5071194;28;20389;-70
2023/05/28 04:03:27;;;;;;;19.02;7.57;;;10.50;99.90;;;;;;5069926;28;20035;-66
2023/05/28 04:05:52;;;;;;;14.45;6.78;;;10.50;99.90;;;;;;5069982;28;20028;-66
2023/05/28 04:08:18;;;;;;;18.73;6.85;;;10.50;99.90;;;;;;5067693;28;20485;-68
2023/05/28 04:10:44;;;;;;;23.38;8.05;;;10.50;99.90;;;;;;5069673;28;20024;-73
2023/05/28 04:13:09;;;;;;;20.10;7.88;;;10.60;99.90;;;;;;5067127;28;20551;-67
2023/05/28 04:15:35;;;;;;;15.07;6.55;;;10.60;99.90;;;;;;5070233;28;20036;-69
2023/05/28 04:18:01;;;;;;;15.98;7.63;;;10.70;99.90;;;;;;5065562;28;20029;-66
2023/05/28 04:20:26;;;;;;;16.17;7.18;;;10.80;99.90;;;;;;5064173;28;20067;-62
2023/05/28 04:22:52;;;;;;;13.70;6.38;;;10.80;99.90;;;;;;5067673;28;20404;-72
2023/05/28 04:25:20;;;;;;;19.63;7.18;;;10.90;99.90;;;;;;5069041;28;20381;-66
2023/05/28 04:27:46;;;;;;;13.25;6.40;;;11.00;99.90;;;;;;5067376;28;20497;-63
2023/05/28 04:30:12;;;;;;;18.58;7.60;;;11.00;99.90;;;;;;5067444;28;20043;-64
2023/05/28 04:32:39;;;;;;;16.30;7.40;;;11.10;99.90;;;;;;5062750;28;20029;-63
2023/05/28 04:35:06;;;;;;;12.07;6.82;;;11.10;99.90;;;;;;5068160;28;20021;-64
2023/05/28 04:37:33;;;;;;;15.57;6.32;;;11.10;99.90;;;;;;5068349;28;20461;-64
2023/05/28 04:39:58;;;;;;;20.48;8.32;;;11.10;99.90;;;;;;5069849;28;20031;-66
2023/05/28 04:42:24;;;;;;;17.73;7.03;;;11.10;99.90;;;;;;5070200;28;20095;-64
2023/05/28 04:44:53;;;;;;;19.88;6.90;;;11.10;99.90;;;;;;5068244;28;20078;-62
2023/05/28 04:47:19;;;;;;;19.58;7.25;;;11.20;99.90;;;;;;5070898;28;20040;-66
2023/05/28 04:49:44;;;;;;;15.50;7.22;;;11.20;99.90;;;;;;5068666;28;20028;-63
2023/05/28 04:52:10;;;;;;;19.45;8.38;;;11.20;99.90;;;;;;5070573;28;20033;-63
2023/05/28 04:54:36;;;;;;;19.85;7.78;;;11.20;99.90;;;;;;5066804;28;20056;-68
2023/05/28 04:57:02;;;;;;;20.92;7.32;;;11.20;99.90;;;;;;5068327;28;20099;-68
2023/05/28 04:59:28;;;;;;;18.20;7.55;;;11.20;99.90;;;;;;5068620;28;20403;-66
2023/05/28 05:01:53;;;;;;;20.38;8.13;;;11.30;99.90;;;;;;5066945;28;20388;-63
2023/05/28 05:04:19;;;;;;;18.30;8.23;;;11.30;99.90;;;;;;5067567;28;20511;-64
2023/05/28 05:06:44;;;;;;;25.83;8.88;;;11.30;99.90;;;;;;5044386;28;20036;-63
2023/05/28 05:09:10;;;;;;;16.10;7.50;;;11.40;99.90;;;;;;5068597;28;20038;-64
2023/05/28 05:11:36;;;;;;;23.90;7.97;;;11.40;99.90;;;;;;5069421;28;20101;-64
2023/05/28 05:14:01;;;;;;;19.95;7.63;;;11.50;99.90;;;;;;5069398;28;20020;-66
2023/05/28 05:16:27;;;;;;;17.95;8.10;;;11.60;99.90;;;;;;5070587;28;20037;-64
2023/05/28 05:18:52;;;;;;;16.08;7.60;;;11.60;99.90;;;;;;5068450;28;20020;-64
2023/05/28 05:21:18;;;;;;;18.75;8.55;;;11.70;99.90;;;;;;5068815;28;21319;-64
2023/05/28 05:23:43;;;;;;;24.17;8.10;;;11.80;99.90;;;;;;5048299;28;20253;-63
2023/05/28 05:26:12;;;;;;;17.35;8.65;;;11.90;99.90;;;;;;5067461;28;20032;-66
2023/05/28 05:28:38;;;;;;;16.33;8.60;;;11.90;99.90;;;;;;5069575;28;20569;-63
2023/05/28 05:31:04;;;;;;;21.88;8.93;;;12.00;99.90;;;;;;5071273;28;20111;-64
2023/05/28 05:33:30;;;;;;;19.63;7.75;;;12.10;99.90;;;;;;5069715;28;20111;-63
2023/05/28 05:35:55;;;;;;;21.65;8.35;;;12.10;99.90;;;;;;5069325;28;20104;-63
2023/05/28 05:38:21;;;;;;;21.65;7.72;;;12.20;99.90;;;;;;5068285;28;20507;-64
2023/05/28 05:40:46;;;;;;;20.90;8.35;;;12.30;99.90;;;;;;5068097;28;20050;-63
2023/05/28 05:43:12;;;;;;;14.85;7.07;;;12.40;99.90;;;;;;5063453;28;20031;-63
2023/05/28 05:45:38;;;;;;;18.23;7.53;;;12.50;99.90;;;;;;5068821;28;20036;-64
2023/05/28 05:48:03;;;;;;;19.73;8.15;;;12.70;99.90;;;;;;5065550;28;20393;-64
2023/05/28 05:50:29;;;;;;;19.98;8.80;;;12.80;99.90;;;;;;5084359;28;20102;-63
2023/05/28 05:52:55;;;;;;;19.92;8.23;;;13.00;99.90;;;;;;5067383;28;20025;-63
2023/05/28 05:55:20;;;;;;;11.50;6.80;;;13.10;99.90;;;;;;5070144;28;20080;-63
2023/05/28 05:57:46;;;;;;;19.08;7.70;;;13.10;99.90;;;;;;5066898;28;20036;-64
2023/05/28 06:00:13;;;;;;;18.40;7.28;;;13.20;99.90;;;;;;5062960;28;20045;-64
2023/05/28 06:02:39;;;;;;;16.33;8.43;;;13.30;99.90;;;;;;5070526;28;20165;-63
2023/05/28 06:05:06;;;;;;;16.55;7.80;;;13.40;99.90;;;;;;5068927;28;20024;-66
2023/05/28 06:07:32;;;;;;;17.00;7.47;;;13.40;99.90;;;;;;5073775;28;20032;-64
2023/05/28 06:09:58;;;;;;;19.38;8.27;;;13.40;99.90;;;;;;5074845;28;20035;-64
2023/05/28 06:12:24;;;;;;;19.15;7.60;;;13.50;99.90;;;;;;5069169;28;20028;-65
2023/05/28 06:14:49;;;;;;;16.00;8.65;;;13.50;99.90;;;;;;5044683;28;20017;-64
2023/05/28 06:17:15;;;;;;;16.38;7.82;;;13.60;99.90;;;;;;5061461;28;20078;-64
2023/05/28 06:19:41;;;;;;;20.83;8.18;;;13.60;99.90;;;;;;5047787;28;20447;-64
2023/05/28 06:22:07;;;;;;;18.30;8.55;;;13.60;99.90;;;;;;5063311;28;20033;-64
2023/05/28 06:24:33;;;;;;;18.75;8.63;;;13.50;99.90;;;;;;5069620;28;20044;-63
2023/05/28 06:26:59;;;;;;;25.05;8.85;;;13.50;99.90;;;;;;5068933;28;20065;-64
2023/05/28 06:29:24;;;;;;;19.42;7.55;;;13.50;99.90;;;;;;5079409;28;20625;-64
2023/05/28 06:31:50;;;;;;;20.23;8.45;;;13.40;99.90;;;;;;5069314;28;20036;-65
2023/05/28 06:34:16;;;;;;;20.13;8.23;;;13.40;99.90;;;;;;5068952;28;20029;-65
2023/05/28 06:36:42;;;;;;;16.02;8.00;;;13.30;99.90;;;;;;5068372;28;20027;-64
2023/05/28 06:39:08;;;;;;;17.00;6.93;;;13.30;99.90;;;;;;5071375;28;20071;-67
2023/05/28 06:41:34;;;;;;;19.73;8.80;;;13.30;99.90;;;;;;5066708;28;20469;-67
2023/05/28 06:44:00;;;;;;;19.85;8.35;;;13.20;99.90;;;;;;5068296;28;20021;-64
2023/05/28 06:46:28;;;;;;;20.73;8.07;;;13.20;99.90;;;;;;5061237;28;20457;-63
2023/05/28 06:48:54;;;;;;;23.90;8.65;;;13.10;99.90;;;;;;5055735;28;20425;-64
2023/05/28 06:51:20;;;;;;;17.17;8.27;;;13.10;99.90;;;;;;5070799;28;20032;-64
2023/05/28 06:53:46;;;;;;;21.58;8.25;;;13.10;99.90;;;;;;5071289;28;20032;-62
2023/05/28 06:56:12;;;;;;;21.92;8.07;;;13.10;99.90;;;;;;5071922;28;20077;-65
2023/05/28 06:58:37;;;;;;;17.85;8.73;;;13.10;99.90;;;;;;5073447;28;20111;-64
2023/05/28 07:01:04;;;;;;;17.58;8.00;;;13.20;99.90;;;;;;5075197;28;20434;-67
2023/05/28 07:03:30;;;;;;;19.13;9.05;;;13.20;99.90;;;;;;5065648;28;20017;-64
2023/05/28 07:05:55;;;;;;;18.33;9.05;;;13.40;99.90;;;;;;5059674;28;20035;-63
2023/05/28 07:08:21;;;;;;;20.83;8.82;;;13.50;99.90;;;;;;5055705;28;20051;-64
2023/05/28 07:10:47;;;;;;;19.10;8.23;;;13.70;99.90;;;;;;5056968;28;20056;-66
2023/05/28 07:13:13;;;;;;;20.40;8.90;;;13.90;99.90;;;;;;5076300;28;20074;-65
2023/05/28 07:15:38;;;;;;;23.02;9.07;;;14.10;99.90;;;;;;5072193;28;20035;-63
2023/05/28 07:18:04;;;;;;;18.20;8.75;;;14.30;99.90;;;;;;5069864;28;20027;-66
2023/05/28 07:20:29;;;;;;;16.88;7.93;;;14.50;99.90;;;;;;5045379;28;20470;-63
2023/05/28 07:22:56;;;;;;;16.67;8.15;;;14.70;99.90;;;;;;5064081;28;20080;-65
2023/05/28 07:25:21;;;;;;;15.70;7.97;;;14.90;99.90;;;;;;5067913;28;20382;-67
2023/05/28 07:27:47;;;;;;;16.80;7.18;;;15.00;99.90;;;;;;5065768;28;20039;-67
2023/05/28 07:30:13;;;;;;;15.65;7.03;;;15.10;99.90;;;;;;5075904;28;20017;-66
2023/05/28 07:32:38;;;;;;;16.73;7.53;;;15.30;99.90;;;;;;5073739;28;20034;-65
2023/05/28 07:35:05;;;;;;;13.93;6.85;;;15.50;99.90;;;;;;5057233;28;20153;-66
2023/05/28 07:37:30;;;;;;;16.10;6.55;;;15.60;99.90;;;;;;5072594;28;20028;-65
2023/05/28 07:39:56;;;;;;;17.40;7.10;;;15.70;99.90;;;;;;5056989;28;20021;-66
2023/05/28 07:42:21;;;;;;;18.67;7.20;;;15.80;99.90;;;;;;5075169;28;20036;-66
2023/05/28 07:44:47;;;;;;;16.55;6.65;;;15.90;99.90;;;;;;5074823;28;20123;-66
2023/05/28 07:47:13;;;;;;;13.55;7.20;;;16.00;99.90;;;;;;5075526;28;20033;-66
2023/05/28 07:49:39;;;;;;;18.90;6.97;;;16.10;99.90;;;;;;5072766;28;20017;-68
2023/05/28 07:52:05;;;;;;;12.38;5.93;;;16.30;99.90;;;;;;5055038;28;20491;-66
2023/05/28 07:54:30;;;;;;;15.35;6.85;;;16.40;99.90;;;;;;5037276;28;20390;-65
2023/05/28 07:56:56;;;;;;;18.02;8.00;;;16.50;99.90;;;;;;5055529;28;20028;-66
2023/05/28 07:59:22;;;;;;;14.57;7.13;;;16.60;99.90;;;;;;5054544;28;20044;-65
2023/05/28 08:01:47;;;;;;;18.98;7.45;;;16.70;99.90;;;;;;5055184;28;20032;-66
2023/05/28 08:04:13;;;;;;;11.98;5.90;;;16.80;99.90;;;;;;5055270;28;20071;-65
2023/05/28 08:06:39;;;;;;;18.10;7.13;;;16.80;99.90;;;;;;5036499;28;20430;-67
2023/05/28 08:09:05;;;;;;;13.45;5.88;;;16.90;99.90;;;;;;5053994;28;20021;-64
2023/05/28 08:11:30;;;;;;;15.00;7.05;;;17.00;99.90;;;;;;5055044;28;20024;-65
2023/05/28 08:13:56;;;;;;;14.13;6.63;;;17.20;99.90;;;;;;5054423;28;20093;-65
2023/05/28 08:16:21;;;;;;;14.45;6.60;;;17.20;99.90;;;;;;5054844;28;20029;-67
2023/05/28 08:18:47;;;;;;;15.80;6.95;;;17.30;99.90;;;;;;5055944;28;20040;-68
2023/05/28 08:21:13;;;;;;;16.88;6.95;;;17.40;99.90;;;;;;5054247;28;20521;-65
2023/05/28 08:23:38;;;;;;;16.77;6.70;;;17.50;99.90;;;;;;5054709;28;20021;-67
2023/05/28 08:26:04;;;;;;;16.50;7.10;;;17.60;99.90;;;;;;5054860;28;20037;-67
2023/05/28 08:28:30;;;;;;;12.25;7.15;;;17.70;99.90;;;;;;5054566;28;20116;-68
2023/05/28 08:30:56;;;;;;;16.63;6.13;;;17.80;99.90;;;;;;5060679;28;20036;-67
2023/05/28 08:33:22;;;;;;;14.75;6.90;;;17.90;99.90;;;;;;5074835;28;20013;-67
2023/05/28 08:35:48;;;;;;;12.00;7.18;;;18.00;99.90;;;;;;5074301;28;20457;-67
2023/05/28 08:38:14;;;;;;;14.25;6.65;;;18.10;99.90;;;;;;5074445;28;20012;-67
2023/05/28 08:40:48;;;;;;;14.43;6.63;;;18.20;99.90;;;;;;5073883;28;20054;-66
2023/05/28 08:43:13;;;;;;;16.15;5.97;;;18.40;99.90;;;;;;5074498;28;20042;-68
2023/05/28 08:45:39;;;;;;;14.77;6.18;;;18.50;99.90;;;;;;5074279;28;20489;-65
2023/05/28 08:48:06;;;;;;;13.82;6.40;;;18.50;99.90;;;;;;5073749;28;20028;-68
2023/05/28 08:50:35;;;;;;;13.60;6.05;;;18.60;99.90;;;;;;5074306;28;20091;-67
2023/05/28 08:53:02;;;;;;;12.98;7.03;;;18.80;99.90;;;;;;5071808;28;20048;-68
2023/05/28 08:55:28;;;;;;;15.95;7.15;;;18.80;99.90;;;;;;5056810;28;20029;-68
2023/05/28 08:57:54;;;;;;;13.77;5.65;;;18.80;99.90;;;;;;5056451;28;20359;-68
2023/05/28 09:00:21;;;;;;;14.77;6.28;;;18.90;99.90;;;;;;5073911;28;20053;-66
2023/05/28 09:02:47;;;;;;;14.13;5.88;;;19.00;99.90;;;;;;5055494;28;20017;-68
2023/05/28 09:05:13;;;;;;;15.93;5.97;;;19.10;99.90;;;;;;5068253;28;20025;-68
2023/05/28 09:07:38;;;;;;;12.20;6.03;;;19.20;99.90;;;;;;5054061;28;20024;-67
2023/05/28 09:10:04;;;;;;;14.43;6.38;;;19.40;99.90;;;;;;5053472;28;20017;-68
2023/05/28 09:12:30;;;;;;;15.20;6.32;;;19.40;99.90;;;;;;5054073;28;20017;-67
2023/05/28 09:14:55;;;;;;;17.10;6.32;;;19.60;99.90;;;;;;5073343;28;20512;-67
2023/05/28 09:17:36;;;;;;;15.40;6.32;;;19.60;99.90;;;;;;5073180;28;20036;-67
2023/05/28 09:20:10;;;;;;;16.23;5.88;;;19.70;99.90;;;;;;5073528;28;20499;-66
2023/05/28 09:22:37;;;;;;;17.58;5.60;;;19.70;99.90;;;;;;5055822;28;20032;-65
2023/05/28 09:25:04;;;;;;;12.85;5.50;;;19.70;99.90;;;;;;5053416;28;20100;-67
2023/05/28 09:27:29;;;;;;;14.25;6.43;;;19.70;99.90;;;;;;5053527;28;20043;-67
2023/05/28 09:29:55;;;;;;;10.75;5.75;;;19.70;99.90;;;;;;5053252;28;20021;-68
2023/05/28 09:32:21;;;;;;;12.13;6.13;;;19.70;99.90;;;;;;5053803;28;20565;-64
2023/05/28 09:34:49;;;;;;;14.55;5.38;;;19.80;99.90;;;;;;5069303;28;20480;-67
2023/05/28 09:37:17;;;;;;;13.07;5.85;;;19.90;99.90;;;;;;5072485;28;20020;-67
2023/05/28 09:39:42;;;;;;;15.07;5.28;;;19.90;99.90;;;;;;5057434;28;20047;-68
2023/05/28 09:42:11;;;;;;;17.02;6.43;;;20.00;99.90;;;;;;5053472;28;20025;-67
2023/05/28 09:44:42;;;;;;;12.07;5.50;;;20.00;99.90;;;;;;5035168;28;20024;-66
2023/05/28 09:47:18;;;;;;;13.77;5.40;;;20.00;99.90;;;;;;5056856;28;20037;-67
2023/05/28 09:49:46;;;;;;;10.52;5.30;;;20.00;99.90;;;;;;5073464;28;20500;-65
2023/05/28 09:52:21;;;;;;;14.20;5.57;;;20.20;99.90;;;;;;5054925;28;20037;-65
2023/05/28 09:54:52;;;;;;;13.60;6.28;;;20.20;99.90;;;;;;5053505;28;20025;-66
2023/05/28 09:57:29;;;;;;;17.53;5.20;;;20.30;99.30;;;;;;5036165;28;20025;-67
2023/05/28 09:59:55;;;;;;;11.20;5.00;;;20.30;99.70;;;;;;5072374;28;20422;-67
2023/05/28 10:02:49;;;;;;;13.20;4.65;;;20.30;99.60;;;;;;5071948;28;20025;-66
2023/05/28 10:05:17;;;;;;;14.25;5.35;;;20.40;98.70;;;;;;5052267;28;20033;-67
2023/05/28 10:07:48;;;;;;;14.88;5.00;;;20.50;98.20;;;;;;5053123;28;20021;-67
2023/05/28 10:10:15;;;;;;;11.70;5.30;;;20.50;97.60;;;;;;5042165;28;20032;-66
2023/05/28 10:12:41;;;;;;;13.32;4.80;;;20.50;97.60;;;;;;5067826;28;20029;-65
2023/05/28 10:15:07;;;;;;;13.45;4.68;;;20.50;96.90;;;;;;5063704;28;20029;-67
2023/05/28 10:17:34;;;;;;;17.48;5.18;;;20.50;97.10;;;;;;5052969;28;20378;-66
2023/05/28 10:20:00;;;;;;;15.18;5.20;;;20.60;96.10;;;;;;5053818;28;20508;-66
2023/05/28 10:22:27;;;;;;;11.02;4.78;;;20.70;95.00;;;;;;5063613;28;20032;-67
2023/05/28 10:24:53;;;;;;;9.52;4.53;;;20.70;94.40;;;;;;5071330;28;20032;-66
2023/05/28 10:27:19;;;;;;;9.65;4.72;;;20.80;93.90;;;;;;5046199;28;20028;-67
2023/05/28 10:29:48;;;;;;;12.18;4.43;;;20.80;93.80;;;;;;5057305;28;20039;-65
2023/05/28 10:32:17;;;;;;;10.07;4.55;;;20.90;94.00;;;;;;5054248;28;20036;-68
2023/05/28 10:34:43;;;;;;;9.32;5.03;;;21.00;94.00;;;;;;5062762;28;20520;-67
2023/05/28 10:37:10;;;;;;;9.65;4.65;;;21.00;92.80;;;;;;5064054;28;20033;-67
2023/05/28 10:39:45;;;;;;;11.32;4.63;;;21.00;92.90;;;;;;5063901;28;20071;-65
2023/05/28 10:42:15;;;;;;;8.88;3.85;;;21.00;93.10;;;;;;5071007;28;20037;-67
2023/05/28 10:44:59;;;;;;;6.60;3.10;;;21.10;91.90;;;;;;5072632;28;20021;-66
2023/05/28 10:47:39;;;;;;;6.82;3.25;;;21.10;90.10;;;;;;5063354;28;20177;-68
2023/05/28 10:50:07;;;;;;;7.28;2.78;;;21.20;86.60;;;;;;5073563;28;20043;-66
2023/05/28 10:52:33;;;;;;;9.50;3.47;;;21.20;85.90;;;;;;5071473;28;20040;-66
2023/05/28 10:55:03;;;;;;;9.48;3.15;;;21.30;80.50;;;;;;5072202;28;20388;-66
2023/05/28 10:57:43;;;;;;;7.43;3.38;;;21.30;80.20;;;;;;5055399;28;20392;-65
2023/05/28 11:00:13;;;;;;;7.85;3.33;;;21.20;80.50;;;;;;5073126;28;20048;-66
2023/05/28 11:02:43;;;;;;;6.88;3.03;;;21.30;78.10;;;;;;5072060;28;20033;-66
2023/05/28 11:05:09;;;;;;;7.73;2.80;;;21.30;78.00;;;;;;5073217;28;20020;-69
2023/05/28 11:07:42;;;;;;;9.43;3.25;;;21.30;77.60;;;;;;5063885;28;20499;-68
2023/05/28 11:10:09;;;;;;;7.85;3.38;;;21.30;78.20;;;;;;5071303;28;20354;-70
2023/05/28 11:12:40;;;;;;;8.98;3.40;;;21.30;76.80;;;;;;5072611;28;20465;-69
2023/05/28 11:15:08;;;;;;;7.88;2.78;;;21.30;75.80;;;;;;5073180;28;20055;-69
2023/05/28 11:17:41;;;;;;;5.32;3.00;;;21.40;74.80;;;;;;5069690;28;20032;-64
2023/05/28 11:20:27;;;;;;;8.52;3.38;;;21.30;74.50;;;;;;5070190;28;20079;-68
2023/05/28 11:22:54;;;;;;;6.90;2.95;;;21.40;77.30;;;;;;5071985;28;20064;-67
2023/05/28 11:25:26;;;;;;;8.93;3.47;;;21.40;76.10;;;;;;5072730;28;20025;-68
2023/05/28 11:27:53;;;;;;;6.85;3.05;;;21.50;75.60;;;;;;5071952;28;20029;-68
2023/05/28 11:30:20;;;;;;;7.97;2.70;;;21.60;76.10;;;;;;5071284;28;20059;-68
2023/05/28 11:32:47;;;;;;;6.07;3.25;;;21.60;74.80;;;;;;5072691;28;20028;-69
2023/05/28 11:35:14;;;;;;;7.13;2.95;;;21.70;74.30;;;;;;5072229;28;20024;-69
2023/05/28 11:37:41;;;;;;;9.93;3.50;;;21.70;74.90;;;;;;5071338;28;20111;-68
2023/05/28 11:40:11;;;;;;;9.70;3.35;;;21.80;74.50;;;;;;5071781;28;20024;-69
2023/05/28 11:42:43;;;;;;;8.75;3.03;;;21.80;73.20;;;;;;5062800;28;20496;-69
2023/05/28 11:45:11;;;;;;;8.77;3.30;;;21.90;75.10;;;;;;5073370;28;20030;-65
2023/05/28 11:47:37;;;;;;;6.72;3.20;;;22.10;75.20;;;;;;5045775;28;20036;-69
2023/05/28 11:50:14;;;;;;;9.20;3.30;;;22.20;72.40;;;;;;5056009;28;20112;-67
2023/05/28 11:52:40;;;;;;;6.75;2.70;;;22.40;72.10;;;;;;5056078;28;20477;-69
2023/05/28 11:55:06;;;;;;;9.00;2.78;;;22.50;70.20;;;;;;5075023;28;20032;-70
2023/05/28 11:57:39;;;;;;;7.63;3.53;;;22.60;70.50;;;;;;5057632;28;20032;-68
2023/05/28 12:00:19;;;;;;;5.75;3.33;;;22.60;70.20;;;;;;5057735;28;20500;-69
2023/05/28 12:02:47;;;;;;;8.15;3.63;;;22.70;68.00;;;;;;5064176;28;20025;-70
2023/05/28 12:05:13;;;;;;;6.43;3.20;;;22.70;66.10;;;;;;5074947;28;20077;-69
2023/05/28 12:07:47;;;;;;;8.43;3.20;;;22.70;66.30;;;;;;5071244;28;20037;-65
2023/05/28 12:10:16;;;;;;;5.78;2.70;;;22.80;68.20;;;;;;5064454;28;20059;-66
2023/05/28 12:13:01;;;;;;;7.97;3.20;;;22.80;66.80;;;;;;5054667;28;20025;-68
2023/05/28 12:15:29;;;;;;;9.90;3.30;;;22.80;66.10;;;;;;5055678;28;20025;-65
2023/05/28 12:17:57;;;;;;;7.80;3.75;;;22.80;66.90;;;;;;5055063;28;20060;-66
2023/05/28 12:20:23;;;;;;;8.88;3.13;;;22.90;65.20;;;;;;5053828;28;20462;-67
2023/05/28 12:23:08;;;;;;;9.82;3.60;;;23.00;64.90;;;;;;5064561;28;20033;-64
2023/05/28 12:25:43;;;;;;;8.43;2.92;;;23.00;66.50;;;;;;5071709;28;20288;-69
2023/05/28 12:28:10;;;;;;;9.93;3.28;;;23.00;63.90;;;;;;5064225;28;20477;-65
2023/05/28 12:30:38;;;;;;;6.70;3.10;;;23.10;63.60;;;;;;5037211;28;20434;-68
2023/05/28 12:33:04;;;;;;;6.82;2.90;;;23.10;63.40;;;;;;5054970;28;20041;-66
2023/05/28 12:35:30;;;;;;;8.52;3.10;;;23.10;63.30;;;;;;5055022;28;20029;-67
2023/05/28 12:37:55;;;;;;;9.15;3.08;;;23.20;62.20;;;;;;5056223;28;20031;-66